VTBD/DMK METAR and TAF weather

Enter ICAO airport designator
Station Type Date Time Source
VTBD METAR 2021/07/26 15:30 UTC NOAA

VTBD 261530Z 22004KT 190V260 9999 -RA FEW020 BKN040 29/25 Q1007 NOSIG


Station Type Date Time Source
VTBD Decoded METAR 2021/07/26 15:30 UTC NOAA

Don Muang, Thailand (VTBD) 13-55N 100-36E 12M
Jul 26, 2021 - 11:30 AM EDT / 2021.07.26 1530 UTC
Wind: from the SW (220 degrees) at 5 MPH (4 KT) (direction variable):0
Visibility: greater than 7 mile(s):0
Sky conditions: mostly cloudy
Weather: light rain
Temperature: 84 F (29 C)
Dew Point: 77 F (25 C)
Relative Humidity: 79%
Pressure (altimeter): 29.74 in. Hg (1007 hPa)
ob: VTBD 261530Z 22004KT 190V260 9999 -RA FEW020 BKN040 29/25 Q1007 NOSIG
cycle: 15

Station Type Date Time Source
VTBD TAF 2021/07/26 12:36 UTC NOAA

TAF VTBD 261100Z 2612/2718 21008KT 9999 FEW020 SCT040
TEMPO 2704/2710 28012KT 4000 TSRA FEW018CB SCT030 BKN100

Example: see airport list